Time;durP1;ratioP1;P1;durP2;ratioP2;P2;SDS_P1;SDS_P2;PMS_P1;PMS_P2;Temp;Humidity;BMP_temperature;BMP_pressure;BME280_temperature;BME280_humidity;BME280_pressure;Samples;Min_cycle;Max_cycle;Signal;HPM_P1;HPM_P2
2023/03/07 00:01:42;;;;;;;49.58;32.05;;;;;;;6.01;100.00;99909.22;5006206;28;20049;-70
2023/03/07 00:04:08;;;;;;;51.40;33.83;;;;;;;5.06;100.00;99781.50;5004850;28;20056;-72
2023/03/07 00:06:33;;;;;;;61.58;35.42;;;;;;;5.21;100.00;99908.25;5005757;28;20042;-71
2023/03/07 00:09:01;;;;;;;64.05;39.28;;;;;;;5.40;100.00;99923.22;5001746;28;20058;-72
2023/03/07 00:11:27;;;;;;;81.38;52.78;;;;;;;5.01;100.00;99853.34;5000071;28;20042;-71
2023/03/07 00:13:54;;;;;;;95.43;57.55;;;;;;;5.05;100.00;99892.41;5001440;28;20041;-70
2023/03/07 00:16:21;;;;;;;91.57;55.20;;;;;;;4.05;100.00;99743.72;5005744;28;20085;-70
2023/03/07 00:18:47;;;;;;;75.45;40.25;;;;;;;4.81;100.00;99894.69;5004073;28;20657;-69
2023/03/07 00:21:15;;;;;;;68.90;39.35;;;;;;;4.12;100.00;99758.56;4993477;28;20069;-72
2023/03/07 00:23:42;;;;;;;98.50;58.75;;;;;;;4.05;100.00;99748.91;5002874;28;20133;-71
2023/03/07 00:26:17;;;;;;;81.75;58.67;;;;;;;4.66;100.00;99892.75;4998790;28;20139;-71
2023/03/07 00:28:45;;;;;;;60.15;41.30;;;;;;;4.14;100.00;99756.84;5002754;28;20057;-72
2023/03/07 00:31:11;;;;;;;77.80;43.55;;;;;;;3.72;100.00;99750.13;5001273;28;20053;-71
2023/03/07 00:33:38;;;;;;;77.05;43.63;;;;;;;3.61;100.00;99749.97;5004460;28;20105;-70
2023/03/07 00:36:10;;;;;;;66.50;41.97;;;;;;;3.63;100.00;99740.50;5004076;28;20160;-70
2023/03/07 00:38:36;;;;;;;73.18;40.28;;;;;;;3.91;100.00;99774.66;5004372;28;20126;-70
2023/03/07 00:41:09;;;;;;;71.20;42.90;;;;;;;3.08;100.00;99628.03;5004485;28;20557;-70
2023/03/07 00:43:36;;;;;;;66.55;42.90;;;;;;;3.36;100.00;99733.94;5003583;28;20137;-71
2023/03/07 00:46:02;;;;;;;80.47;44.13;;;;;;;3.45;100.00;99790.31;5005416;28;20080;-71
2023/03/07 00:48:28;;;;;;;85.18;41.88;;;;;;;2.98;100.00;99712.50;4999033;28;20038;-72
2023/03/07 00:50:55;;;;;;;79.40;42.70;;;;;;;2.95;100.00;99715.06;4998378;28;20461;-71
2023/03/07 00:53:21;;;;;;;71.45;42.28;;;;;;;3.51;100.00;99851.78;5003288;28;20108;-73
2023/03/07 00:56:02;;;;;;;59.30;39.03;;;;;;;3.59;100.00;99861.47;5005532;28;20120;-70
2023/03/07 00:58:30;;;;;;;72.70;38.85;;;;;;;3.45;100.00;99857.72;5003533;28;20046;-72
2023/03/07 01:00:56;;;;;;;70.72;42.50;;;;;;;2.92;100.00;99771.97;5002098;28;20137;-72
2023/03/07 01:03:22;;;;;;;66.38;42.03;;;;;;;3.21;100.00;99846.84;5002472;28;20554;-72
2023/03/07 01:05:48;;;;;;;70.18;40.97;;;;;;;3.22;100.00;99859.00;5006166;28;20045;-71
2023/03/07 01:08:15;;;;;;;69.78;38.00;;;;;;;2.53;100.00;99724.56;4992528;28;20046;-72
2023/03/07 01:10:41;;;;;;;57.72;33.33;;;;;;;3.00;100.00;99840.41;4995758;28;20049;-72
2023/03/07 01:13:06;;;;;;;53.35;31.92;;;;;;;2.33;100.00;99725.84;5007145;28;20173;-71
2023/03/07 01:15:32;;;;;;;56.75;36.70;;;;;;;2.31;100.00;99712.00;5004644;28;20037;-71
2023/03/07 01:17:58;;;;;;;60.40;35.28;;;;;;;2.88;100.00;99821.97;5003272;28;20041;-71
2023/03/07 01:20:23;;;;;;;57.17;33.17;;;;;;;2.00;100.00;99682.84;5006782;28;20042;-74
2023/03/07 01:22:49;;;;;;;61.90;35.72;;;;;;;2.56;100.00;99767.78;5007887;28;20038;-72
2023/03/07 01:25:14;;;;;;;57.00;35.40;;;;;;;2.18;100.00;99728.97;5007425;28;20716;-71
2023/03/07 01:27:40;;;;;;;67.85;36.55;;;;;;;1.97;100.00;99684.53;5004381;28;20029;-72
2023/03/07 01:30:07;;;;;;;60.50;32.13;;;;;;;1.85;100.00;99662.69;4998889;28;20490;-70
2023/03/07 01:32:33;;;;;;;47.65;29.02;;;;;;;2.62;100.00;99779.97;5001310;28;20041;-70
2023/03/07 01:34:58;;;;;;;58.95;32.20;;;;;;;2.49;100.00;99711.53;5002748;28;20042;-73
2023/03/07 01:37:24;;;;;;;51.30;32.25;;;;;;;3.20;100.00;99806.22;5005707;28;20053;-71
2023/03/07 01:39:54;;;;;;;53.35;34.63;;;;;;;3.15;100.00;99780.22;5007824;28;20160;-70
2023/03/07 01:42:20;;;;;;;59.47;34.17;;;;;;;3.41;100.00;99810.97;5007860;28;20056;-72
2023/03/07 01:45:03;;;;;;;49.20;33.38;;;;;;;3.45;100.00;99813.66;5007412;28;20386;-72
2023/03/07 01:47:29;;;;;;;62.03;33.88;;;;;;;3.52;100.00;99818.09;5001705;28;20140;-71
2023/03/07 01:49:56;;;;;;;54.20;32.92;;;;;;;3.21;100.00;99784.63;5007070;28;20565;-71
2023/03/07 01:52:28;;;;;;;60.55;37.00;;;;;;;2.13;100.00;99613.25;5001739;28;20119;-69
2023/03/07 01:55:02;;;;;;;59.37;33.30;;;;;;;2.21;100.00;99716.09;4989309;28;20030;-72
2023/03/07 01:57:36;;;;;;;53.60;30.55;;;;;;;2.61;100.00;99792.06;5001722;28;20033;-70
2023/03/07 02:00:07;;;;;;;62.78;33.47;;;;;;;2.06;100.00;99703.72;5008361;28;20705;-74
2023/03/07 02:02:35;;;;;;;59.83;29.73;;;;;;;1.99;100.00;99675.06;5002093;28;20105;-71
2023/03/07 02:05:08;;;;;;;60.28;29.40;;;;;;;2.41;100.00;99693.25;5006173;28;20042;-72
2023/03/07 02:07:40;;;;;;;60.30;32.75;;;;;;;3.13;100.00;99774.13;4998296;28;20046;-71
2023/03/07 02:10:07;;;;;;;53.45;31.10;;;;;;;3.33;100.00;99800.44;5005253;28;20049;-70
2023/03/07 02:12:33;;;;;;;56.25;29.33;;;;;;;3.23;100.00;99780.34;5003066;28;20088;-73
2023/03/07 02:15:00;;;;;;;59.63;30.55;;;;;;;3.21;100.00;99793.31;4999743;28;20046;-72
2023/03/07 02:17:26;;;;;;;44.17;28.73;;;;;;;2.88;100.00;99807.34;5001485;28;20042;-71
2023/03/07 02:20:33;;;;;;;64.85;32.15;;;;;;;2.85;100.00;99785.66;5000423;28;20046;-72
2023/03/07 02:23:00;;;;;;;58.67;33.00;;;;;;;2.82;100.00;99801.16;5001504;28;20060;-71
2023/03/07 02:25:59;;;;;;;67.43;33.35;;;;;;;2.87;100.00;99823.72;5007128;28;20132;-71
2023/03/07 02:28:25;;;;;;;49.38;30.80;;;;;;;2.69;100.00;99793.13;4994023;28;20391;-73
2023/03/07 02:30:56;;;;;;;60.08;32.78;;;;;;;2.22;100.00;99781.69;4997964;28;20049;-70
2023/03/07 02:33:23;;;;;;;62.03;33.60;;;;;;;2.27;100.00;99799.09;5003244;28;20423;-70
2023/03/07 02:35:54;;;;;;;55.70;34.47;;;;;;;2.14;100.00;99799.63;5006768;28;20469;-70
2023/03/07 02:38:21;;;;;;;53.70;28.85;;;;;;;1.55;100.00;99662.84;5002695;28;20081;-71
2023/03/07 02:40:47;;;;;;;49.60;29.67;;;;;;;1.71;100.00;99640.81;5006715;28;20049;-72
2023/03/07 02:43:14;;;;;;;59.28;31.23;;;;;;;2.25;100.00;99699.81;4996079;28;20058;-69
2023/03/07 02:45:39;;;;;;;50.67;29.27;;;;;;;2.98;100.00;99781.63;4998017;28;20123;-72
2023/03/07 02:48:05;;;;;;;51.40;32.08;;;;;;;2.23;100.00;99635.91;5003679;28;20097;-71
2023/03/07 02:50:30;;;;;;;53.03;31.33;;;;;;;2.29;100.00;99660.22;5007367;28;20458;-70
2023/03/07 02:52:56;;;;;;;52.22;32.10;;;;;;;3.12;100.00;99782.75;5007151;28;20414;-72
2023/03/07 02:55:22;;;;;;;59.35;35.45;;;;;;;2.60;100.00;99761.84;5002976;28;20085;-71
2023/03/07 02:57:47;;;;;;;54.05;30.52;;;;;;;2.93;100.00;99787.56;5001879;28;20030;-70
2023/03/07 03:00:14;;;;;;;70.45;33.47;;;;;;;3.03;100.00;99790.34;5002683;28;20076;-70
2023/03/07 03:02:39;;;;;;;62.15;33.78;;;;;;;2.84;100.00;99783.91;5002500;28;20057;-70
2023/03/07 03:05:05;;;;;;;54.88;30.60;;;;;;;2.18;100.00;99735.84;4997175;28;20077;-70
2023/03/07 03:07:31;;;;;;;65.70;37.42;;;;;;;2.37;100.00;99765.63;4997561;28;20057;-71
2023/03/07 03:09:56;;;;;;;46.30;28.67;;;;;;;2.23;100.00;99659.22;4997052;28;20030;-69
2023/03/07 03:12:22;;;;;;;59.45;34.08;;;;;;;2.53;100.00;99685.72;5001441;28;20045;-70
2023/03/07 03:14:48;;;;;;;73.47;34.05;;;;;;;2.30;100.00;99666.25;5028423;28;20044;-70
2023/03/07 03:17:13;;;;;;;66.32;32.42;;;;;;;2.12;100.00;99700.38;5006231;28;20042;-72
2023/03/07 03:19:39;;;;;;;69.30;33.47;;;;;;;2.49;100.00;99771.09;5005667;28;20540;-73
2023/03/07 03:22:04;;;;;;;55.63;34.25;;;;;;;2.17;100.00;99659.94;5006717;28;20089;-71
2023/03/07 03:24:29;;;;;;;61.17;30.98;;;;;;;2.23;100.00;99638.50;4997695;28;20033;-72
2023/03/07 03:26:56;;;;;;;62.95;34.50;;;;;;;2.52;100.00;99773.72;5004553;28;20505;-72
2023/03/07 03:29:22;;;;;;;53.33;31.48;;;;;;;2.06;100.00;99628.66;5001037;28;20133;-72
2023/03/07 03:31:48;;;;;;;59.05;32.72;;;;;;;2.68;100.00;99733.50;5001676;28;20129;-71
2023/03/07 03:34:13;;;;;;;57.35;33.72;;;;;;;2.54;100.00;99725.44;4995981;28;20049;-70
2023/03/07 03:36:39;;;;;;;57.70;30.48;;;;;;;1.25;100.00;99621.63;5001204;28;20042;-71
2023/03/07 03:39:09;;;;;;;58.75;33.15;;;;;;;2.08;100.00;99748.59;5001975;28;20436;-72
2023/03/07 03:41:36;;;;;;;60.70;35.05;;;;;;;2.08;100.00;99727.00;5001780;28;20090;-74
2023/03/07 03:44:02;;;;;;;65.07;35.85;;;;;;;2.23;100.00;99760.16;5005639;28;20085;-71
2023/03/07 03:46:28;;;;;;;59.58;31.48;;;;;;;1.87;100.00;99655.84;4998425;28;20049;-72
2023/03/07 03:48:54;;;;;;;65.82;34.78;;;;;;;2.57;100.00;99722.03;5002654;28;20033;-70
2023/03/07 03:51:21;;;;;;;49.40;32.40;;;;;;;2.61;100.00;99718.69;4998443;28;20042;-73
2023/03/07 03:53:47;;;;;;;56.05;29.75;;;;;;;2.74;100.00;99750.06;5006285;28;20073;-71
2023/03/07 03:56:21;;;;;;;46.22;29.95;;;;;;;2.18;100.00;99632.34;5006212;28;20482;-73
2023/03/07 03:58:54;;;;;;;62.03;34.05;;;;;;;2.43;100.00;99690.69;5002613;28;20037;-71
2023/03/07 04:01:21;;;;;;;;;;;;;;;2.82;100.00;99739.84;5004196;28;20038;-69
2023/03/07 04:03:49;;;;;;;64.07;30.58;;;;;;;2.82;100.00;99718.25;5005097;28;19913;-71
2023/03/07 04:06:17;;;;;;;54.67;31.88;;;;;;;2.89;100.00;99740.84;4999447;28;20220;-71
2023/03/07 04:08:45;;;;;;;62.63;36.20;;;;;;;2.83;100.00;99736.38;5001628;28;20038;-71
2023/03/07 04:11:11;;;;;;;53.95;33.58;;;;;;;3.06;100.00;99754.13;4998113;28;20364;-72
2023/03/07 04:13:36;;;;;;;56.92;33.22;;;;;;;3.02;100.00;99735.06;5005215;28;20128;-71
2023/03/07 04:16:03;;;;;;;75.57;35.05;;;;;;;2.60;100.00;99624.59;4999763;28;20049;-71
2023/03/07 04:18:28;;;;;;;58.45;31.80;;;;;;;3.12;100.00;99724.00;5004052;28;20496;-72
2023/03/07 04:20:54;;;;;;;54.53;32.28;;;;;;;2.72;100.00;99681.78;4993030;28;20134;-71
2023/03/07 04:23:22;;;;;;;56.17;34.20;;;;;;;3.14;100.00;99737.88;5000684;28;20508;-72
2023/03/07 04:25:49;;;;;;;62.47;37.10;;;;;;;2.78;100.00;99660.31;5001360;28;20118;-73
2023/03/07 04:28:16;;;;;;;59.58;33.13;;;;;;;2.60;100.00;99644.41;5004384;28;20483;-71
2023/03/07 04:30:41;;;;;;;56.17;32.83;;;;;;;3.31;100.00;99771.03;4994663;28;20053;-71
2023/03/07 04:33:07;;;;;;;57.30;35.00;;;;;;;3.09;100.00;99707.53;4993037;28;20042;-71
2023/03/07 04:35:32;;;;;;;62.40;33.58;;;;;;;3.46;100.00;99780.81;4989494;28;20149;-71
2023/03/07 04:37:57;;;;;;;54.53;30.70;;;;;;;2.40;100.00;99638.84;5002220;28;20192;-70
2023/03/07 04:40:23;;;;;;;56.03;33.97;;;;;;;3.05;100.00;99752.38;5005798;28;20050;-71
2023/03/07 04:42:48;;;;;;;65.13;33.97;;;;;;;3.01;100.00;99781.66;5006420;28;20033;-72
2023/03/07 04:45:14;;;;;;;55.55;32.10;;;;;;;2.15;100.00;99638.31;5005896;28;20034;-72
2023/03/07 04:47:39;;;;;;;57.58;34.67;;;;;;;1.99;100.00;99636.25;4999123;28;20092;-72
2023/03/07 04:50:05;;;;;;;58.70;32.40;;;;;;;1.94;100.00;99630.97;4999501;28;20046;-71
2023/03/07 04:52:31;;;;;;;51.78;32.28;;;;;;;2.05;100.00;99639.84;5005908;28;20049;-72
2023/03/07 04:54:56;;;;;;;52.53;32.20;;;;;;;2.94;100.00;99728.84;4999830;28;20120;-72
2023/03/07 04:57:22;;;;;;;58.35;32.10;;;;;;;2.79;100.00;99664.66;5006384;28;20025;-70
2023/03/07 04:59:47;;;;;;;60.38;35.45;;;;;;;2.92;100.00;99673.53;5002064;28;20125;-70
2023/03/07 05:02:13;;;;;;;52.95;34.33;;;;;;;2.91;100.00;99661.44;4991062;28;20074;-70
2023/03/07 05:04:39;;;;;;;60.92;34.03;;;;;;;3.60;100.00;99787.09;4998474;28;20042;-71
2023/03/07 05:07:04;;;;;;;59.65;34.50;;;;;;;3.13;100.00;99679.09;5003551;28;20410;-72
2023/03/07 05:09:30;;;;;;;48.83;29.58;;;;;;;3.75;100.00;99789.13;4999906;28;20026;-72
2023/03/07 05:11:55;;;;;;;56.28;33.53;;;;;;;2.53;100.00;99677.09;5003852;28;20046;-70
2023/03/07 05:14:21;;;;;;;58.13;32.30;;;;;;;2.26;100.00;99642.00;4997331;28;20878;-72
2023/03/07 05:16:47;;;;;;;65.75;32.05;;;;;;;3.05;100.00;99768.81;4989016;28;20491;-73
2023/03/07 05:19:12;;;;;;;60.28;34.00;;;;;;;2.74;100.00;99689.59;4996406;28;20061;-72
2023/03/07 05:21:42;;;;;;;56.35;36.63;;;;;;;3.23;100.00;99764.81;5005336;28;20025;-70
2023/03/07 05:24:08;;;;;;;62.60;33.90;;;;;;;3.28;100.00;99781.34;5001684;28;20517;-70
2023/03/07 05:26:34;;;;;;;58.17;37.72;;;;;;;2.52;100.00;99644.25;4997289;28;20104;-72
2023/03/07 05:29:00;;;;;;;68.22;38.83;;;;;;;2.29;100.00;99631.75;5002380;28;20049;-71
2023/03/07 05:31:25;;;;;;;64.90;39.10;;;;;;;2.28;100.00;99645.50;4995026;28;20195;-72
2023/03/07 05:33:51;;;;;;;61.65;33.55;;;;;;;2.35;100.00;99651.69;5001962;28;20030;-71
2023/03/07 05:36:16;;;;;;;64.95;33.95;;;;;;;3.24;100.00;99795.97;5000139;28;20325;-73
2023/03/07 05:38:42;;;;;;;66.78;37.60;;;;;;;3.60;100.00;99797.47;5002882;28;20459;-71
2023/03/07 05:41:08;;;;;;;56.35;38.17;;;;;;;3.45;100.00;99802.41;4997080;28;20069;-71
2023/03/07 05:43:33;;;;;;;70.85;37.10;;;;;;;2.93;100.00;99677.88;5000334;28;20518;-71
2023/03/07 05:45:59;;;;;;;72.80;42.00;;;;;;;3.21;100.00;99756.13;4992809;28;20038;-71
2023/03/07 05:48:24;;;;;;;57.08;34.42;;;;;;;3.68;100.00;99792.44;5001011;28;20036;-73
2023/03/07 05:50:50;;;;;;;67.90;35.78;;;;;;;4.01;100.00;99815.50;4999696;28;20087;-72
2023/03/07 05:53:15;;;;;;;61.08;34.42;;;;;;;3.47;100.00;99668.47;5007082;28;20489;-73
2023/03/07 05:55:41;;;;;;;51.88;34.90;;;;;;;3.74;100.00;99701.72;4999164;28;20069;-72
2023/03/07 05:58:06;;;;;;;71.07;42.13;;;;;;;3.66;100.00;99686.06;5002444;28;20057;-73
2023/03/07 06:00:32;;;;;;;75.47;40.88;;;;;;;3.86;100.00;99693.25;5003799;28;20034;-72
2023/03/07 06:03:00;;;;;;;64.90;39.63;;;;;;;4.49;100.00;99798.94;5006336;28;20486;-72
2023/03/07 06:05:25;;;;;;;59.92;35.83;;;;;;;4.03;100.00;99699.59;5006697;28;20178;-74
2023/03/07 06:07:50;;;;;;;64.75;37.33;;;;;;;4.16;100.00;99705.81;5006525;28;20502;-71
2023/03/07 06:10:16;;;;;;;65.35;37.83;;;;;;;5.05;100.00;99831.75;5007646;28;20065;-72
2023/03/07 06:12:41;;;;;;;66.57;37.67;;;;;;;5.18;100.00;99832.78;4996857;28;20040;-71
2023/03/07 06:15:07;;;;;;;58.28;32.25;;;;;;;4.65;100.00;99716.88;5006499;28;20077;-71
2023/03/07 06:17:33;;;;;;;66.38;36.20;;;;;;;5.41;100.00;99827.88;5006961;28;20497;-73
2023/03/07 06:19:59;;;;;;;67.05;37.22;;;;;;;4.90;100.00;99761.38;5007678;28;20133;-72
2023/03/07 06:22:24;;;;;;;78.03;37.47;;;;;;;5.16;100.00;99818.91;5006554;28;20359;-71
2023/03/07 06:24:51;;;;;;;66.65;37.03;;;;;;;4.97;100.00;99716.41;5005917;28;20115;-71
2023/03/07 06:27:17;;;;;;;59.65;35.00;;;;;;;5.64;100.00;99830.69;4997997;28;20470;-71
2023/03/07 06:29:42;;;;;;;59.97;35.05;;;;;;;5.42;100.00;99804.44;5001897;28;20065;-71
2023/03/07 06:32:08;;;;;;;65.75;37.60;;;;;;;5.28;100.00;99723.66;5002879;28;20084;-74
2023/03/07 06:34:33;;;;;;;56.20;35.35;;;;;;;5.16;100.00;99726.16;5005016;28;20050;-72
2023/03/07 06:36:59;;;;;;;66.47;39.05;;;;;;;6.27;100.00;99858.22;5006553;28;20038;-72
2023/03/07 06:39:25;;;;;;;69.18;41.45;;;;;;;5.43;100.00;99743.78;5003202;28;20166;-71
2023/03/07 06:41:51;;;;;;;81.38;43.15;;;;;;;5.60;100.00;99751.72;5004485;28;20135;-73
2023/03/07 06:44:17;;;;;;;53.95;34.97;;;;;;;5.24;100.00;99732.31;5002767;28;21551;-71
2023/03/07 06:46:44;;;;;;;64.65;37.45;;;;;;;5.69;100.00;99795.19;5004029;28;20049;-71
2023/03/07 06:49:10;;;;;;;69.28;39.08;;;;;;;5.45;100.00;99735.97;5004221;28;20462;-71
2023/03/07 06:51:35;;;;;;;62.75;35.60;;;;;;;5.97;100.00;99835.41;4996155;28;20034;-71
2023/03/07 06:54:00;;;;;;;58.72;34.95;;;;;;;5.19;100.00;99739.16;5003034;28;20502;-69
2023/03/07 06:56:28;;;;;;;62.70;33.00;;;;;;;6.06;100.00;99861.56;4995412;28;20052;-71
2023/03/07 06:58:54;;;;;;;54.80;33.88;;;;;;;5.58;100.00;99745.63;5004093;28;20176;-72
2023/03/07 07:01:21;;;;;;;52.45;35.35;;;;;;;6.30;100.00;99849.59;4994248;28;20078;-73
2023/03/07 07:03:47;;;;;;;55.95;31.45;;;;;;;5.71;100.00;99742.31;4999207;28;20033;-69
2023/03/07 07:06:12;;;;;;;43.10;29.27;;;;;;;6.31;100.00;99840.91;5000132;28;20416;-72
2023/03/07 07:08:38;;;;;;;55.03;30.60;;;;;;;5.77;100.00;99728.44;5002697;28;20038;-69
2023/03/07 07:11:04;;;;;;;53.83;30.42;;;;;;;5.99;100.00;99739.06;5032326;28;20054;-73
2023/03/07 07:13:29;;;;;;;62.08;42.40;;;;;;;6.55;100.00;99832.38;5002655;28;20410;-72
2023/03/07 07:15:54;;;;;;;49.05;31.25;;;;;;;6.77;100.00;99846.44;5004620;28;20029;-72
2023/03/07 07:18:20;;;;;;;48.70;30.13;;;;;;;7.01;100.00;99844.84;5005737;28;20037;-74
2023/03/07 07:20:55;;;;;;;69.18;44.80;;;;;;;6.91;100.00;99818.72;5003094;28;20031;-74
2023/03/07 07:23:20;;;;;;;58.38;33.25;;;;;;;7.11;99.94;99847.50;4993540;28;20095;-75
2023/03/07 07:25:46;;;;;;;55.72;33.13;;;;;;;7.21;100.00;99861.47;4995943;28;20050;-73
2023/03/07 07:28:11;;;;;;;74.22;47.75;;;;;;;7.41;98.24;99858.94;5003917;28;20723;-74
2023/03/07 07:30:37;;;;;;;69.35;45.75;;;;;;;7.57;98.06;99854.66;5002148;28;20096;-74
2023/03/07 07:33:02;;;;;;;73.70;47.38;;;;;;;7.15;96.44;99768.38;5003268;28;20776;-74
2023/03/07 07:35:28;;;;;;;63.90;43.22;;;;;;;7.51;93.38;99743.22;5001037;28;20038;-73
2023/03/07 07:37:53;;;;;;;64.97;43.40;;;;;;;7.77;90.73;99740.69;5031874;28;20065;-75
2023/03/07 07:40:19;;;;;;;63.22;41.30;;;;;;;7.74;90.71;99719.75;5004992;28;20049;-75
2023/03/07 07:42:53;;;;;;;53.55;39.30;;;;;;;8.46;89.72;99820.81;5001916;28;20127;-74
2023/03/07 07:45:23;;;;;;;61.72;41.63;;;;;;;7.97;87.18;99730.22;5005944;28;20466;-74
2023/03/07 07:47:49;;;;;;;73.05;44.25;;;;;;;8.69;86.56;99844.31;4999766;28;20151;-73
2023/03/07 07:50:20;;;;;;;58.72;38.45;;;;;;;8.83;87.44;99815.53;4998711;28;20073;-73
2023/03/07 07:52:45;;;;;;;58.00;36.92;;;;;;;9.12;87.09;99846.81;4996534;28;20061;-71
2023/03/07 07:55:13;;;;;;;57.22;41.75;;;;;;;8.51;85.46;99735.38;4996972;28;20498;-72
2023/03/07 07:57:41;;;;;;;64.13;38.80;;;;;;;9.36;82.37;99848.47;4989073;28;20077;-73
2023/03/07 08:00:09;;;;;;;58.47;38.72;;;;;;;9.35;82.54;99844.13;4987792;28;20491;-70
2023/03/07 08:02:35;;;;;;;68.05;39.92;;;;;;;8.78;80.35;99742.28;4986072;28;20038;-74
2023/03/07 08:05:01;;;;;;;70.28;43.88;;;;;;;9.33;79.38;99806.59;4988594;28;20104;-71
2023/03/07 08:07:26;;;;;;;73.53;48.47;;;;;;;8.72;79.28;99705.69;4994716;28;20397;-73
2023/03/07 08:09:52;;;;;;;75.72;44.53;;;;;;;9.72;78.75;99857.03;4988759;28;20049;-72
2023/03/07 08:12:18;;;;;;;61.55;39.95;;;;;;;9.71;76.77;99855.28;4987872;28;20034;-75
2023/03/07 08:14:43;;;;;;;59.78;38.70;;;;;;;9.23;76.58;99763.91;4987518;28;20042;-71
2023/03/07 08:17:08;;;;;;;54.03;40.10;;;;;;;9.34;78.13;99758.63;4986288;28;20930;-72
2023/03/07 08:19:34;;;;;;;57.22;39.10;;;;;;;9.40;75.57;99739.38;4990956;28;20038;-71
2023/03/07 08:22:00;;;;;;;44.50;31.42;;;;;;;9.90;73.60;99835.97;4989651;28;20026;-73
2023/03/07 08:24:26;;;;;;;53.88;34.92;;;;;;;9.78;71.74;99811.59;4988567;28;20157;-71
2023/03/07 08:26:52;;;;;;;51.33;34.25;;;;;;;9.98;72.20;99833.28;4988946;28;20046;-71
2023/03/07 08:29:18;;;;;;;50.05;35.35;;;;;;;10.18;74.22;99853.25;4999804;28;20049;-74
2023/03/07 08:31:44;;;;;;;50.10;34.30;;;;;;;10.32;73.40;99840.91;4987736;28;20104;-72
2023/03/07 08:34:11;;;;;;;56.05;35.45;;;;;;;10.31;73.66;99834.81;4987019;28;20552;-72
2023/03/07 08:36:38;;;;;;;65.78;36.78;;;;;;;9.98;72.81;99751.19;4986749;28;20034;-71
2023/03/07 08:39:04;;;;;;;54.05;32.33;;;;;;;9.77;72.35;99733.88;4987908;28;20046;-70
2023/03/07 08:41:29;;;;;;;52.28;35.05;;;;;;;10.41;73.05;99809.38;4987421;28;20045;-71
2023/03/07 08:43:55;;;;;;;53.17;33.38;;;;;;;10.18;72.30;99737.88;4986855;28;20092;-71
2023/03/07 08:46:20;;;;;;;48.53;34.53;;;;;;;10.80;72.14;99820.38;4986667;28;20395;-70
2023/03/07 08:48:46;;;;;;;43.70;32.10;;;;;;;10.54;72.49;99741.94;4990238;28;20064;-71
2023/03/07 08:51:14;;;;;;;48.65;33.20;;;;;;;10.66;70.30;99746.19;4987614;28;20102;-71
2023/03/07 08:53:44;;;;;;;42.85;29.40;;;;;;;11.15;71.10;99819.97;4985612;28;20058;-71
2023/03/07 08:56:13;;;;;;;40.90;26.55;;;;;;;10.50;71.95;99708.75;4992824;28;20062;-72
2023/03/07 08:58:39;;;;;;;48.63;26.85;;;;;;;11.18;72.62;99819.06;5000494;28;20042;-71
2023/03/07 09:01:06;;;;;;;40.88;26.92;;;;;;;10.77;72.16;99746.94;4997531;28;20446;-71
2023/03/07 09:03:33;;;;;;;39.20;29.23;;;;;;;10.91;71.81;99726.66;5002436;28;20397;-72
2023/03/07 09:05:59;;;;;;;41.00;27.98;;;;;;;11.66;71.37;99844.72;4999398;28;20070;-71
2023/03/07 09:08:25;;;;;;;39.03;27.83;;;;;;;11.59;71.09;99834.31;5001627;28;20037;-71
2023/03/07 09:10:51;;;;;;;42.63;27.77;;;;;;;11.88;71.37;99826.94;5010964;28;20624;-71
2023/03/07 09:13:17;;;;;;;44.05;27.13;;;;;;;11.72;70.35;99818.38;5001868;28;20156;-71
2023/03/07 09:15:43;;;;;;;47.22;25.08;;;;;;;10.99;69.22;99710.78;4999202;28;20045;-72
2023/03/07 09:18:09;;;;;;;38.90;26.33;;;;;;;11.87;68.98;99817.25;5001911;28;20152;-71
2023/03/07 09:20:37;;;;;;;40.63;27.40;;;;;;;12.21;67.30;99812.38;4999712;28;20050;-70
2023/03/07 09:23:02;;;;;;;42.13;25.45;;;;;;;12.35;67.24;99820.91;5001210;28;20050;-73
2023/03/07 09:25:29;;;;;;;36.55;25.45;;;;;;;12.38;66.58;99823.47;5003615;28;20045;-71
2023/03/07 09:27:54;;;;;;;43.97;24.42;;;;;;;12.66;67.10;99829.13;5005318;28;20049;-71
2023/03/07 09:30:21;;;;;;;38.17;24.25;;;;;;;12.38;66.40;99825.25;5002367;28;20084;-72
2023/03/07 09:32:47;;;;;;;30.85;21.88;;;;;;;11.66;66.54;99719.47;5005829;28;20140;-73
2023/03/07 09:35:12;;;;;;;40.15;21.67;;;;;;;12.00;67.79;99746.09;5004262;28;20609;-71
2023/03/07 09:37:38;;;;;;;29.35;21.58;;;;;;;12.19;67.90;99738.75;5005912;28;20490;-75
2023/03/07 09:40:06;;;;;;;31.38;20.98;;;;;;;12.53;68.14;99803.94;5006241;28;20449;-77
2023/03/07 09:42:39;;;;;;;32.28;24.33;;;;;;;12.83;66.17;99814.78;5005070;28;20050;-76
2023/03/07 09:45:29;;;;;;;47.50;26.93;;;;;;;12.85;66.04;99811.25;4999357;28;20042;-72
2023/03/07 09:48:24;;;;;;;27.92;21.17;;;;;;;12.36;66.15;99699.00;5005390;28;20128;-71
2023/03/07 09:50:55;;;;;;;37.13;21.17;;;;;;;13.18;65.54;99806.22;5004367;28;20046;-72
2023/03/07 09:53:43;;;;;;;29.25;18.42;;;;;;;13.26;65.32;99806.06;5002932;28;20159;-70
2023/03/07 09:56:20;;;;;;;35.15;16.75;;;;;;;13.02;66.20;99802.16;5000755;28;20139;-70
2023/03/07 09:58:50;;;;;;;36.83;18.23;;;;;;;13.22;66.37;99807.88;4992785;28;20068;-70
2023/03/07 10:01:23;;;;;;;27.85;17.48;;;;;;;12.69;64.66;99704.53;4993537;28;20141;-69
2023/03/07 10:04:04;;;;;;;26.27;15.20;;;;;;;12.54;66.64;99681.97;4991665;28;20089;-72
2023/03/07 10:06:38;;;;;;;24.05;16.35;;;;;;;13.25;66.00;99789.38;4990926;28;20065;-72
2023/03/07 10:09:10;;;;;;;23.92;17.30;;;;;;;13.38;65.45;99779.47;4988231;28;20038;-71
2023/03/07 10:11:48;;;;;;;22.50;13.40;;;;;;;13.16;65.78;99791.31;4992797;28;20092;-71
2023/03/07 10:14:43;;;;;;;23.42;14.57;;;;;;;13.25;65.57;99794.66;4988895;28;20081;-71
2023/03/07 10:17:29;;;;;;;27.67;15.43;;;;;;;13.20;66.51;99791.22;4990720;28;20054;-71
2023/03/07 10:20:12;;;;;;;25.58;14.85;;;;;;;12.97;67.11;99696.03;4991607;28;20046;-71
2023/03/07 10:22:47;;;;;;;35.35;15.35;;;;;;;13.46;66.89;99772.28;4987535;28;20089;-70
2023/03/07 10:25:12;;;;;;;19.00;13.98;;;;;;;13.66;66.23;99784.13;4991686;28;20132;-70
2023/03/07 10:27:38;;;;;;;19.88;14.90;;;;;;;13.66;66.32;99755.13;4992164;28;20034;-72
2023/03/07 10:30:16;;;;;;;21.02;12.55;;;;;;;13.09;64.87;99657.13;4984946;28;20143;-70
2023/03/07 10:32:57;;;;;;;18.83;12.80;;;;;;;13.57;65.51;99761.47;4987898;28;20077;-70
2023/03/07 10:35:37;;;;;;;21.48;11.18;;;;;;;13.80;64.61;99766.22;4989639;28;20054;-72
2023/03/07 10:38:18;;;;;;;25.48;10.73;;;;;;;14.03;64.97;99768.31;4994142;28;20053;-70
2023/03/07 10:41:00;;;;;;;14.55;10.32;;;;;;;13.63;64.63;99673.50;5004859;28;20723;-71
2023/03/07 10:43:31;;;;;;;20.15;9.23;;;;;;;13.99;62.65;99742.03;5016578;28;20061;-72
2023/03/07 10:46:05;;;;;;;15.77;10.00;;;;;;;14.00;62.81;99747.28;5004480;28;20034;-70
2023/03/07 10:48:32;;;;;;;17.02;10.43;;;;;;;13.43;62.25;99619.47;5005292;28;20046;-71
2023/03/07 10:51:10;;;;;;;15.80;10.00;;;;;;;14.59;60.98;99722.06;4996398;28;20071;-71
2023/03/07 10:53:38;;;;;;;17.35;10.95;;;;;;;14.11;60.60;99636.19;5003800;28;20034;-71
2023/03/07 10:56:10;;;;;;;18.52;11.32;;;;;;;14.82;60.50;99732.84;5000693;28;20056;-71
2023/03/07 10:58:36;;;;;;;18.20;10.73;;;;;;;14.87;59.05;99638.47;5006069;28;20346;-71
2023/03/07 11:01:07;;;;;;;27.52;11.50;;;;;;;15.44;57.58;99742.44;5004408;28;20022;-73
2023/03/07 11:03:39;;;;;;;22.55;11.02;;;;;;;15.28;56.74;99728.81;5005760;28;20397;-72
2023/03/07 11:06:05;;;;;;;18.60;12.27;;;;;;;15.38;55.90;99717.06;4999444;28;20144;-71
2023/03/07 11:08:32;;;;;;;14.93;10.48;;;;;;;14.85;56.42;99616.53;4993102;28;20494;-70
2023/03/07 11:11:02;;;;;;;14.05;8.32;;;;;;;16.20;55.01;99691.50;5003846;28;20124;-72
2023/03/07 11:13:28;;;;;;;16.63;8.57;;;;;;;16.20;53.07;99600.59;5032790;28;20081;-70
2023/03/07 11:16:20;;;;;;;17.38;8.55;;;;;;;16.22;51.29;99614.66;5000442;28;20544;-72
2023/03/07 11:18:45;;;;;;;14.90;8.77;;;;;;;17.06;51.16;99711.38;4999786;28;20065;-71
2023/03/07 11:21:33;;;;;;;14.60;10.50;;;;;;;16.33;52.08;99707.81;5003902;28;20077;-73
2023/03/07 11:24:21;;;;;;;17.13;9.32;;;;;;;15.92;52.08;99695.97;4996136;28;20049;-72